createdAt,value
2022-10-17T00:01:04.810Z,12.53
2022-10-17T00:03:33.455Z,12.42
2022-10-17T00:06:08.816Z,12.24
2022-10-17T00:08:37.467Z,12.17
2022-10-17T00:11:12.338Z,12.05
2022-10-17T00:13:40.039Z,11.98
2022-10-17T00:16:07.868Z,11.99
2022-10-17T00:18:35.264Z,11.93
2022-10-17T00:21:03.095Z,11.85
2022-10-17T00:23:30.676Z,11.82
2022-10-17T00:26:03.047Z,11.94
2022-10-17T00:28:32.114Z,11.94
2022-10-17T00:31:02.442Z,11.91
2022-10-17T00:33:31.054Z,11.86
2022-10-17T00:36:06.736Z,11.84
2022-10-17T00:38:36.741Z,11.87
2022-10-17T00:41:04.660Z,11.86
2022-10-17T00:43:50.408Z,11.86
2022-10-17T00:46:18.291Z,11.82
2022-10-17T00:48:46.291Z,11.79
2022-10-17T00:51:14.711Z,11.74
2022-10-17T00:53:42.611Z,11.79
2022-10-17T00:56:10.806Z,11.92
2022-10-17T00:58:38.234Z,12.01
2022-10-17T01:01:05.960Z,12.05
2022-10-17T01:03:33.403Z,11.97
2022-10-17T01:06:00.815Z,11.97
2022-10-17T01:08:28.696Z,12.04
2022-10-17T01:11:08.284Z,12.04
2022-10-17T01:13:46.789Z,12.01
2022-10-17T01:16:23.679Z,11.93
2022-10-17T01:19:16.793Z,11.85
2022-10-17T01:21:54.536Z,11.72
2022-10-17T01:24:37.896Z,11.68
2022-10-17T01:27:23.819Z,11.61
2022-10-17T01:30:26.114Z,11.56
2022-10-17T01:33:04.677Z,11.56
2022-10-17T01:35:40.546Z,11.55
2022-10-17T01:38:16.377Z,11.49
2022-10-17T01:41:02.861Z,11.43
2022-10-17T01:43:47.240Z,11.46
2022-10-17T01:46:41.400Z,11.38
2022-10-17T01:49:13.185Z,11.37
2022-10-17T01:51:47.674Z,11.21
2022-10-17T01:54:21.534Z,11.15
2022-10-17T01:56:53.422Z,11.19
2022-10-17T01:59:25.584Z,11.24
2022-10-17T02:01:56.083Z,11.17
2022-10-17T02:04:25.215Z,11.16
2022-10-17T02:06:52.643Z,11.09
2022-10-17T02:09:25.595Z,11.15
2022-10-17T02:12:15.181Z,11.10
2022-10-17T02:15:11.097Z,11.07
2022-10-17T02:17:50.597Z,11.09
2022-10-17T02:20:33.272Z,11.08
2022-10-17T02:23:00.990Z,11.12
2022-10-17T02:25:55.028Z,11.09
2022-10-17T02:28:44.226Z,11.13
2022-10-17T02:31:23.850Z,11.06
2022-10-17T02:33:58.030Z,11.01
2022-10-17T02:36:41.179Z,10.96
2022-10-17T02:39:10.451Z,10.99
2022-10-17T02:41:40.300Z,10.89
2022-10-17T02:44:08.789Z,10.83
2022-10-17T02:46:38.621Z,10.80
2022-10-17T02:49:10.668Z,10.69
2022-10-17T02:51:50.848Z,10.64
2022-10-17T02:54:30.364Z,10.62
2022-10-17T02:57:46.576Z,10.70
2022-10-17T03:00:16.708Z,10.81
2022-10-17T03:02:50.243Z,10.72
2022-10-17T03:05:21.351Z,10.65
2022-10-17T03:07:49.063Z,10.63
2022-10-17T03:10:17.107Z,10.69
2022-10-17T03:12:45.166Z,10.64
2022-10-17T03:15:13.572Z,10.65
2022-10-17T03:17:41.147Z,10.66
2022-10-17T03:20:09.792Z,10.67
2022-10-17T03:22:37.231Z,10.70
2022-10-17T03:25:05.106Z,10.70
2022-10-17T03:27:35.368Z,10.67
2022-10-17T03:30:03.284Z,10.71
2022-10-17T03:32:33.721Z,10.61
2022-10-17T03:35:02.293Z,10.62
2022-10-17T03:37:30.160Z,10.63
2022-10-17T03:39:57.779Z,10.57
2022-10-17T03:42:25.804Z,10.51
2022-10-17T03:44:53.192Z,10.54
2022-10-17T03:47:20.994Z,10.51
2022-10-17T03:49:49.673Z,10.54
2022-10-17T03:52:17.875Z,10.49
2022-10-17T03:54:45.660Z,10.51
2022-10-17T03:57:13.398Z,10.56
2022-10-17T03:59:40.798Z,10.57
2022-10-17T04:02:08.473Z,10.53
2022-10-17T04:04:36.527Z,10.57
2022-10-17T04:07:04.015Z,10.59
2022-10-17T04:09:31.442Z,10.63
2022-10-17T04:12:00.350Z,10.62
2022-10-17T04:14:27.856Z,10.68
2022-10-17T04:16:55.405Z,10.73
2022-10-17T04:19:23.156Z,10.69
2022-10-17T04:21:50.698Z,10.74
2022-10-17T04:24:18.228Z,10.66
2022-10-17T04:26:46.109Z,10.69
2022-10-17T04:29:13.808Z,10.72
2022-10-17T04:31:41.806Z,10.72
2022-10-17T04:34:11.008Z,10.62
2022-10-17T04:36:38.402Z,10.59
2022-10-17T04:39:06.037Z,10.65
2022-10-17T04:41:34.021Z,10.72
2022-10-17T04:44:02.645Z,10.73
2022-10-17T04:46:33.625Z,10.60
2022-10-17T04:49:01.396Z,10.58
2022-10-17T04:51:29.342Z,10.52
2022-10-17T04:53:58.160Z,10.55
2022-10-17T04:56:26.156Z,10.34
2022-10-17T04:58:53.827Z,10.37
2022-10-17T05:01:23.752Z,10.32
2022-10-17T05:03:52.257Z,10.13
2022-10-17T05:06:23.086Z,10.07
2022-10-17T05:08:53.325Z,10.09
2022-10-17T05:11:29.044Z,10.04
2022-10-17T05:13:59.932Z,10.03
2022-10-17T05:16:28.739Z,10.40
2022-10-17T05:18:58.328Z,11.48
2022-10-17T05:21:29.529Z,12.14
2022-10-17T05:23:57.919Z,11.97
2022-10-17T05:26:26.471Z,11.75
2022-10-17T05:28:54.835Z,11.32
2022-10-17T05:31:22.736Z,11.02
2022-10-17T05:33:50.176Z,10.85
2022-10-17T05:36:18.611Z,10.65
2022-10-17T05:38:51.238Z,10.67
2022-10-17T05:41:20.498Z,10.65
2022-10-17T05:43:48.319Z,10.54
2022-10-17T05:46:16.605Z,10.57
2022-10-17T05:48:44.608Z,10.52
2022-10-17T05:51:12.402Z,10.56
2022-10-17T05:53:42.187Z,10.58
2022-10-17T05:56:12.524Z,10.61
2022-10-17T05:58:50.853Z,10.54
2022-10-17T06:01:21.044Z,10.56
2022-10-17T06:03:48.833Z,10.62
2022-10-17T06:06:17.546Z,10.65
2022-10-17T06:08:46.298Z,10.64
2022-10-17T06:11:14.548Z,10.74
2022-10-17T06:13:42.238Z,10.77
2022-10-17T06:16:10.387Z,10.82
2022-10-17T06:18:39.201Z,10.93
2022-10-17T06:21:11.799Z,11.07
2022-10-17T06:23:40.071Z,11.17
2022-10-17T06:26:07.763Z,11.29
2022-10-17T06:28:36.099Z,11.38
2022-10-17T06:31:06.325Z,11.56
2022-10-17T06:33:34.200Z,11.67
2022-10-17T06:36:03.025Z,11.93
2022-10-17T06:38:31.748Z,12.16
2022-10-17T06:41:08.856Z,12.50
2022-10-17T06:43:41.053Z,12.80
2022-10-17T06:46:16.403Z,13.13
2022-10-17T06:48:46.532Z,13.41
2022-10-17T06:51:14.090Z,13.62
2022-10-17T06:53:42.754Z,13.91
2022-10-17T06:56:11.047Z,14.30
2022-10-17T06:58:40.311Z,14.63
2022-10-17T07:01:13.604Z,14.82
2022-10-17T07:03:41.708Z,15.14
2022-10-17T07:06:11.024Z,15.43
2022-10-17T07:08:44.051Z,15.62
2022-10-17T07:11:15.127Z,15.60
2022-10-17T07:13:43.212Z,15.91
2022-10-17T07:16:11.675Z,16.13
2022-10-17T07:18:40.367Z,16.36
2022-10-17T07:21:08.840Z,16.10
2022-10-17T07:23:37.784Z,16.22
2022-10-17T07:26:13.931Z,16.55
2022-10-17T07:28:44.128Z,16.70
2022-10-17T07:31:16.992Z,16.99
2022-10-17T07:36:18.792Z,17.19
2022-10-17T07:38:46.882Z,17.17
2022-10-17T07:41:17.926Z,17.41
2022-10-17T07:43:49.248Z,17.61
2022-10-17T07:46:17.240Z,17.76
2022-10-17T07:48:45.212Z,17.84
2022-10-17T07:51:13.035Z,18.34
2022-10-17T07:53:42.758Z,18.34
2022-10-17T07:56:13.122Z,18.43
2022-10-17T07:58:40.537Z,18.91
2022-10-17T08:01:14.741Z,19.24
2022-10-17T08:03:48.665Z,19.34
2022-10-17T08:06:16.152Z,19.53
2022-10-17T08:08:43.940Z,19.72
2022-10-17T08:11:13.229Z,19.87
2022-10-17T08:13:41.309Z,19.73
2022-10-17T08:16:12.069Z,20.01
2022-10-17T08:18:41.094Z,19.56
2022-10-17T08:21:09.843Z,19.82
2022-10-17T08:23:37.719Z,19.55
2022-10-17T08:26:10.514Z,19.75
2022-10-17T08:28:40.306Z,20.01
2022-10-17T08:31:11.330Z,20.07
2022-10-17T08:33:39.750Z,20.47
2022-10-17T08:36:09.104Z,20.34
2022-10-17T08:38:41.438Z,20.80
2022-10-17T08:41:29.963Z,21.05
2022-10-17T08:44:12.010Z,21.07
2022-10-17T08:46:42.391Z,21.40
2022-10-17T08:49:16.586Z,21.50
2022-10-17T08:51:51.591Z,21.96
2022-10-17T08:54:25.492Z,21.46
2022-10-17T08:56:55.394Z,21.80
2022-10-17T08:59:28.576Z,21.70
2022-10-17T09:02:14.042Z,21.79
2022-10-17T09:05:23.892Z,21.69
2022-10-17T09:08:31.972Z,21.96
2022-10-17T09:11:24.044Z,21.92
2022-10-17T09:14:08.027Z,21.71
2022-10-17T09:16:53.436Z,21.68
2022-10-17T09:19:25.963Z,21.46
2022-10-17T09:22:02.026Z,21.53
2022-10-17T09:24:41.039Z,21.86
2022-10-17T09:27:25.885Z,22.05
2022-10-17T09:30:21.380Z,22.16
2022-10-17T09:32:58.168Z,22.34
2022-10-17T09:35:29.055Z,22.25
2022-10-17T09:37:56.543Z,22.28
2022-10-17T09:40:33.816Z,22.58
2022-10-17T09:43:05.230Z,22.74
2022-10-17T09:45:37.831Z,23.03
2022-10-17T09:48:18.641Z,22.75
2022-10-17T09:50:53.882Z,22.79
2022-10-17T09:53:38.405Z,22.90
2022-10-17T09:56:12.987Z,22.93
2022-10-17T09:58:47.878Z,23.03
2022-10-17T10:01:24.021Z,23.35
2022-10-17T10:04:09.319Z,23.36
2022-10-17T10:06:37.337Z,23.52
2022-10-17T10:09:07.034Z,23.51
2022-10-17T10:11:51.283Z,23.53
2022-10-17T10:14:34.129Z,23.63
2022-10-17T10:17:03.825Z,23.80
2022-10-17T10:19:37.303Z,23.59
2022-10-17T10:22:14.770Z,23.48
2022-10-17T10:24:42.530Z,23.67
2022-10-17T10:27:18.101Z,23.10
2022-10-17T10:29:51.378Z,23.25
2022-10-17T10:32:30.007Z,23.83
2022-10-17T10:35:16.126Z,23.65
2022-10-17T10:37:46.438Z,23.59
2022-10-17T10:40:29.451Z,23.39
2022-10-17T10:43:04.188Z,23.09
2022-10-17T10:45:47.461Z,23.62
2022-10-17T10:48:18.704Z,23.81
2022-10-17T10:50:49.387Z,24.07
2022-10-17T10:53:26.063Z,23.60
2022-10-17T10:56:19.310Z,23.67
2022-10-17T10:58:54.401Z,24.02
2022-10-17T11:01:28.110Z,23.94
2022-10-17T11:04:26.513Z,24.00
2022-10-17T11:07:02.194Z,23.74
2022-10-17T11:09:55.192Z,23.75
2022-10-17T11:12:28.126Z,23.70
2022-10-17T11:15:10.048Z,23.59
2022-10-17T11:17:57.843Z,23.63
2022-10-17T11:20:36.876Z,23.75
2022-10-17T11:23:36.116Z,23.84
2022-10-17T11:26:09.135Z,23.66
2022-10-17T11:28:37.482Z,23.36
2022-10-17T11:31:18.440Z,23.29
2022-10-17T11:33:54.460Z,23.09
2022-10-17T11:36:28.293Z,23.13
2022-10-17T11:39:02.479Z,23.46
2022-10-17T11:41:41.979Z,23.59
2022-10-17T11:44:18.579Z,23.63
2022-10-17T11:46:51.751Z,23.49
2022-10-17T11:49:24.989Z,23.39
2022-10-17T11:52:03.393Z,23.30
2022-10-17T11:54:31.243Z,23.14
2022-10-17T11:57:07.135Z,23.16
2022-10-17T12:00:03.232Z,23.50
2022-10-17T12:02:37.792Z,23.55
2022-10-17T12:05:34.573Z,23.76
2022-10-17T12:08:14.006Z,23.44
2022-10-17T12:11:14.955Z,23.64
2022-10-17T12:13:51.983Z,23.42
2022-10-17T12:16:23.398Z,23.43
2022-10-17T12:19:10.684Z,23.48
2022-10-17T12:21:58.626Z,23.34
2022-10-17T12:24:36.128Z,23.18
2022-10-17T12:27:32.036Z,23.38
2022-10-17T12:30:07.532Z,23.61
2022-10-17T12:32:53.385Z,23.53
2022-10-17T12:35:25.391Z,23.56
2022-10-17T12:37:56.216Z,23.50
2022-10-17T12:40:34.927Z,23.34
2022-10-17T12:43:23.522Z,23.54
2022-10-17T12:45:52.188Z,23.22
2022-10-17T12:48:38.188Z,23.14
2022-10-17T12:51:35.175Z,23.18
2022-10-17T12:54:12.843Z,23.46
2022-10-17T12:56:44.336Z,23.34
2022-10-17T12:59:17.729Z,23.41
2022-10-17T13:01:48.031Z,23.49
2022-10-17T13:04:16.385Z,23.46
2022-10-17T13:06:53.404Z,23.65
2022-10-17T13:09:35.407Z,23.63
2022-10-17T13:12:06.499Z,23.73
2022-10-17T13:14:34.932Z,23.68
2022-10-17T13:17:07.556Z,23.87
2022-10-17T13:19:44.374Z,23.87
2022-10-17T13:22:17.356Z,23.61
2022-10-17T13:24:45.600Z,23.42
2022-10-17T13:27:31.415Z,23.26
2022-10-17T13:30:02.146Z,23.24
2022-10-17T13:32:39.696Z,23.20
2022-10-17T13:35:17.249Z,23.30
2022-10-17T13:37:51.537Z,23.37
2022-10-17T13:40:44.599Z,23.52
2022-10-17T13:43:19.457Z,23.58
2022-10-17T13:45:53.371Z,23.51
2022-10-17T13:48:24.838Z,23.21
2022-10-17T13:50:59.120Z,23.01
2022-10-17T13:53:42.503Z,22.91
2022-10-17T13:56:27.736Z,22.91
2022-10-17T13:58:59.232Z,22.98
2022-10-17T14:01:29.130Z,22.93
2022-10-17T14:04:08.326Z,23.15
2022-10-17T14:06:47.684Z,23.10
2022-10-17T14:09:24.575Z,23.01
2022-10-17T14:12:11.141Z,22.93
2022-10-17T14:15:05.212Z,22.81
2022-10-17T14:17:30.138Z,22.90
2022-10-17T14:20:34.379Z,22.81
2022-10-17T14:23:17.621Z,22.64
2022-10-17T14:25:41.218Z,22.52
2022-10-17T14:28:14.895Z,22.61
2022-10-17T14:31:02.947Z,22.40
2022-10-17T14:33:31.948Z,22.34
2022-10-17T14:36:02.591Z,22.20
2022-10-17T14:38:30.788Z,22.19
2022-10-17T14:44:07.079Z,22.13
2022-10-17T14:46:36.235Z,21.99
2022-10-17T14:49:19.436Z,21.99
2022-10-17T14:52:18.215Z,21.90
2022-10-17T14:54:50.691Z,21.73
2022-10-17T14:57:33.415Z,21.81
2022-10-17T15:00:01.257Z,21.60
2022-10-17T15:02:30.762Z,21.64
2022-10-17T15:04:58.551Z,21.51
2022-10-17T15:07:26.291Z,21.37
2022-10-17T15:09:54.137Z,21.23
2022-10-17T15:12:24.818Z,21.10
2022-10-17T15:14:53.498Z,20.92
2022-10-17T15:17:31.506Z,20.92
2022-10-17T15:19:59.258Z,20.82
2022-10-17T15:22:26.886Z,20.75
2022-10-17T15:24:54.394Z,20.61
2022-10-17T15:27:24.986Z,20.46
2022-10-17T15:29:53.168Z,20.35
2022-10-17T15:32:20.619Z,20.16
2022-10-17T15:34:48.477Z,20.06
2022-10-17T15:37:22.844Z,19.93
2022-10-17T15:39:54.337Z,19.84
2022-10-17T15:42:26.643Z,19.73
2022-10-17T15:44:54.897Z,19.62
2022-10-17T15:47:27.334Z,19.46
2022-10-17T15:49:55.863Z,19.36
2022-10-17T15:52:23.755Z,19.24
2022-10-17T15:54:51.822Z,19.11
2022-10-17T15:57:23.279Z,18.91
2022-10-17T15:59:51.895Z,18.76
2022-10-17T16:02:21.382Z,18.62
2022-10-17T16:04:50.460Z,18.45
2022-10-17T16:07:20.887Z,18.35
2022-10-17T16:09:48.706Z,18.20
2022-10-17T16:12:29.128Z,18.07
2022-10-17T16:14:57.365Z,18.03
2022-10-17T16:17:24.836Z,17.91
2022-10-17T16:19:52.239Z,17.78
2022-10-17T16:22:32.670Z,17.61
2022-10-17T16:25:07.809Z,17.58
2022-10-17T16:27:37.376Z,17.38
2022-10-17T16:30:07.273Z,17.36
2022-10-17T16:32:34.977Z,17.29
2022-10-17T16:35:02.492Z,17.25
2022-10-17T16:37:29.968Z,17.14
2022-10-17T16:39:57.732Z,17.03
2022-10-17T16:42:25.125Z,16.84
2022-10-17T16:44:52.524Z,16.77
2022-10-17T16:47:20.244Z,16.75
2022-10-17T16:49:47.652Z,16.66
2022-10-17T16:52:15.142Z,16.65
2022-10-17T16:54:42.802Z,16.60
2022-10-17T16:57:10.286Z,16.53
2022-10-17T16:59:37.722Z,16.55
2022-10-17T17:02:05.427Z,16.49
2022-10-17T17:04:32.873Z,16.47
2022-10-17T17:07:00.487Z,16.39
2022-10-17T17:09:28.248Z,16.34
2022-10-17T17:11:55.623Z,16.29
2022-10-17T17:14:23.046Z,16.25
2022-10-17T17:16:50.743Z,16.15
2022-10-17T17:19:18.167Z,16.13
2022-10-17T17:21:50.187Z,16.06
2022-10-17T17:24:21.158Z,16.02
2022-10-17T17:26:54.114Z,15.96
2022-10-17T17:29:23.121Z,16.08
2022-10-17T17:31:50.703Z,16.00
2022-10-17T17:34:18.468Z,16.00
2022-10-17T17:36:49.196Z,15.83
2022-10-17T17:39:17.131Z,15.70
2022-10-17T17:41:45.739Z,15.58
2022-10-17T17:44:16.672Z,15.47
2022-10-17T17:46:45.321Z,15.35
2022-10-17T17:49:13.169Z,15.22
2022-10-17T17:51:41.908Z,15.18
2022-10-17T17:54:11.627Z,15.07
2022-10-17T17:56:39.899Z,14.96
2022-10-17T17:59:07.323Z,14.90
2022-10-17T18:01:39.108Z,14.87
2022-10-17T18:04:08.987Z,14.86
2022-10-17T18:06:37.694Z,14.86
2022-10-17T18:09:06.962Z,14.82
2022-10-17T18:11:35.554Z,14.79
2022-10-17T18:14:05.953Z,14.83
2022-10-17T18:16:35.322Z,14.88
2022-10-17T18:19:09.077Z,14.80
2022-10-17T18:21:37.210Z,14.80
2022-10-17T18:24:05.320Z,14.86
2022-10-17T18:26:33.290Z,14.80
2022-10-17T18:29:00.950Z,14.70
2022-10-17T18:31:32.040Z,14.66
2022-10-17T18:34:03.100Z,14.59
2022-10-17T18:36:32.140Z,14.57
2022-10-17T18:39:00.884Z,14.54
2022-10-17T18:41:28.910Z,14.46
2022-10-17T18:43:57.545Z,14.44
2022-10-17T18:46:36.002Z,14.47
2022-10-17T18:49:03.851Z,14.47
2022-10-17T18:51:31.551Z,14.44
2022-10-17T18:53:59.016Z,14.31
2022-10-17T18:56:26.970Z,14.29
2022-10-17T18:58:55.282Z,14.20
2022-10-17T19:01:25.935Z,14.19
2022-10-17T19:03:55.970Z,14.13
2022-10-17T19:06:31.776Z,14.08
2022-10-17T19:09:01.077Z,14.01
2022-10-17T19:11:30.610Z,13.94
2022-10-17T19:14:01.672Z,13.89
2022-10-17T19:16:34.971Z,13.81
2022-10-17T19:19:10.852Z,13.77
2022-10-17T19:21:39.521Z,13.75
2022-10-17T19:24:10.744Z,13.64
2022-10-17T19:26:39.842Z,13.64
2022-10-17T19:29:07.484Z,13.64
2022-10-17T19:31:36.053Z,13.61
2022-10-17T19:34:04.432Z,13.54
2022-10-17T19:36:34.363Z,13.52
2022-10-17T19:39:07.096Z,13.51
2022-10-17T19:41:36.402Z,13.45
2022-10-17T19:44:03.927Z,13.44
2022-10-17T19:46:32.177Z,13.51
2022-10-17T19:49:00.036Z,13.47
2022-10-17T19:51:29.087Z,13.51
2022-10-17T19:54:00.408Z,13.56
2022-10-17T19:56:31.562Z,13.55
2022-10-17T19:58:59.298Z,13.52
2022-10-17T20:01:30.669Z,13.54
2022-10-17T20:03:58.459Z,13.55
2022-10-17T20:06:26.171Z,13.49
2022-10-17T20:08:54.108Z,13.51
2022-10-17T20:11:24.459Z,13.51
2022-10-17T20:13:53.015Z,13.48
2022-10-17T20:16:23.709Z,13.46
2022-10-17T20:18:54.584Z,13.47
2022-10-17T20:21:27.332Z,13.48
2022-10-17T20:23:55.500Z,13.46
2022-10-17T20:26:36.565Z,13.48
2022-10-17T20:29:11.241Z,13.37
2022-10-17T20:31:40.631Z,13.38
2022-10-17T20:34:11.960Z,13.38
2022-10-17T20:36:39.659Z,13.41
2022-10-17T20:39:07.509Z,13.39
2022-10-17T20:41:35.364Z,13.37
2022-10-17T20:44:03.135Z,13.40
2022-10-17T20:46:36.952Z,13.37
2022-10-17T20:49:09.872Z,13.32
2022-10-17T20:51:37.372Z,13.32
2022-10-17T20:54:05.169Z,13.29
2022-10-17T20:56:34.497Z,13.29
2022-10-17T20:59:07.942Z,13.33
2022-10-17T21:01:36.165Z,13.32
2022-10-17T21:06:53.501Z,13.30
2022-10-17T21:09:21.823Z,13.29
2022-10-17T21:11:52.545Z,13.28
2022-10-17T21:14:21.019Z,13.27
2022-10-17T21:16:48.895Z,13.23
2022-10-17T21:19:16.691Z,13.24
2022-10-17T21:21:46.680Z,13.21
2022-10-17T21:24:18.047Z,13.15
2022-10-17T21:26:47.410Z,13.09
2022-10-17T21:29:15.280Z,13.09
2022-10-17T21:31:44.806Z,13.06
2022-10-17T21:34:24.614Z,13.01
2022-10-17T21:36:52.936Z,13.02
2022-10-17T21:39:21.914Z,13.00
2022-10-17T21:41:49.366Z,12.95
2022-10-17T21:44:22.709Z,12.96
2022-10-17T21:46:51.409Z,12.93
2022-10-17T21:49:21.376Z,12.87
2022-10-17T21:51:49.793Z,12.87
2022-10-17T21:54:19.600Z,12.86
2022-10-17T21:56:47.183Z,12.85
2022-10-17T21:59:14.570Z,12.83
2022-10-17T22:01:44.939Z,12.80
2022-10-17T22:04:15.487Z,12.67
2022-10-17T22:06:44.651Z,12.69
2022-10-17T22:09:23.820Z,12.70
2022-10-17T22:11:54.947Z,12.56
2022-10-17T22:14:25.031Z,12.42
2022-10-17T22:16:53.223Z,12.39
2022-10-17T22:19:26.017Z,12.32
2022-10-17T22:21:54.756Z,12.29
2022-10-17T22:24:22.333Z,12.19
2022-10-17T22:26:50.324Z,12.09
2022-10-17T22:29:18.113Z,11.98
2022-10-17T22:31:45.885Z,12.01
2022-10-17T22:34:14.746Z,11.96
2022-10-17T22:36:42.901Z,11.95
2022-10-17T22:39:11.303Z,11.96
2022-10-17T22:41:38.819Z,11.92
2022-10-17T22:44:06.773Z,11.84
2022-10-17T22:46:34.623Z,11.78
2022-10-17T22:49:02.268Z,11.78
2022-10-17T22:51:29.957Z,11.76
2022-10-17T22:53:57.432Z,11.81
2022-10-17T22:56:24.913Z,11.73
2022-10-17T22:58:52.708Z,11.72
2022-10-17T23:01:22.946Z,11.69
2022-10-17T23:03:51.636Z,11.66
2022-10-17T23:06:20.216Z,11.64
2022-10-17T23:08:47.990Z,11.64
2022-10-17T23:11:15.691Z,11.60
2022-10-17T23:13:43.351Z,11.56
2022-10-17T23:16:10.741Z,11.43
2022-10-17T23:18:38.947Z,11.40
2022-10-17T23:21:07.111Z,11.45
2022-10-17T23:23:34.575Z,11.34
2022-10-17T23:26:09.789Z,11.32
2022-10-17T23:28:38.571Z,11.23
2022-10-17T23:31:13.051Z,11.26
2022-10-17T23:33:41.516Z,11.22
2022-10-17T23:36:11.064Z,11.19
2022-10-17T23:38:40.038Z,11.16
2022-10-17T23:41:08.709Z,11.21
2022-10-17T23:43:36.386Z,11.18
2022-10-17T23:46:05.836Z,11.18
2022-10-17T23:48:33.995Z,11.29
2022-10-17T23:51:01.607Z,11.26
2022-10-17T23:53:29.012Z,11.30
2022-10-17T23:55:56.695Z,11.23
2022-10-17T23:58:24.374Z,11.23
